Time;durP1;ratioP1;P1;durP2;ratioP2;P2;SDS_P1;SDS_P2;PMS_P1;PMS_P2;Temp;Humidity;BMP_temperature;BMP_pressure;BME280_temperature;BME280_humidity;BME280_pressure;Samples;Min_cycle;Max_cycle;Signal;HPM_P1;HPM_P2
2022/07/05 00:02:15;;;;;;;12.47;10.03;;;;;;;20.06;78.48;98956.48;2210924;81;20909;-80
2022/07/05 00:05:15;;;;;;;13.53;10.08;;;;;;;20.02;79.09;98947.73;2210953;81;20946;-80
2022/07/05 00:08:15;;;;;;;11.35;10.15;;;;;;;19.98;79.37;98938.12;2211042;81;20937;-80
2022/07/05 00:11:16;;;;;;;11.45;10.30;;;;;;;19.94;79.74;98925.86;2211191;81;20984;-80
2022/07/05 00:14:16;;;;;;;14.30;10.55;;;;;;;19.91;79.84;98914.43;2210851;81;21008;-80
2022/07/05 00:17:17;;;;;;;11.80;10.68;;;;;;;19.88;80.18;98915.83;2210736;81;20901;-80
2022/07/05 00:20:17;;;;;;;13.28;9.85;;;;;;;19.87;80.70;98921.58;2210842;81;20976;-80
2022/07/05 00:23:17;;;;;;;11.80;10.50;;;;;;;19.87;81.27;98913.64;2210620;81;21297;-80
2022/07/05 00:26:18;;;;;;;11.40;10.30;;;;;;;19.86;81.45;98913.67;2210704;81;20949;-80
2022/07/05 00:29:18;;;;;;;13.38;11.30;;;;;;;19.84;81.83;98915.48;2210890;81;20988;-80
2022/07/05 00:32:19;;;;;;;13.98;11.60;;;;;;;19.88;82.59;98916.70;2211131;81;20992;-80
2022/07/05 00:35:19;;;;;;;12.88;11.35;;;;;;;19.89;83.18;98924.20;2211333;81;20980;-80
2022/07/05 00:38:19;;;;;;;17.57;11.97;;;;;;;19.95;84.42;98958.52;2212240;80;20969;-82
2022/07/05 00:41:23;;;;;;;14.68;12.58;;;;;;;19.97;83.92;98956.70;2211087;81;20980;-81
2022/07/05 00:44:23;;;;;;;13.80;10.55;;;;;;;19.99;83.90;98955.75;2210897;81;20921;-80
2022/07/05 00:47:24;;;;;;;11.70;10.48;;;;;;;19.97;83.15;98955.38;2210867;81;20987;-80
2022/07/05 00:50:24;;;;;;;9.20;8.40;;;;;;;19.99;82.72;98952.23;2211193;81;21450;-80
2022/07/05 00:53:24;;;;;;;11.63;10.43;;;;;;;20.00;82.14;98939.41;2210739;81;20944;-80
2022/07/05 00:56:25;;;;;;;11.97;9.38;;;;;;;19.98;82.03;98929.30;2210771;81;20980;-80
2022/07/05 00:59:25;;;;;;;10.68;9.08;;;;;;;19.90;82.31;98924.61;2211096;81;20960;-80
2022/07/05 01:02:26;;;;;;;10.30;9.40;;;;;;;19.85;82.82;98910.61;2211125;81;21016;-80
2022/07/05 01:05:26;;;;;;;11.05;9.45;;;;;;;19.76;82.70;98905.08;2211276;81;20976;-81
2022/07/05 01:08:26;;;;;;;10.60;9.60;;;;;;;19.68;82.75;98907.05;2211232;81;20984;-80
2022/07/05 01:11:27;;;;;;;9.80;8.90;;;;;;;19.62;83.03;98908.06;2211102;81;21292;-80
2022/07/05 01:14:27;;;;;;;10.40;9.33;;;;;;;19.63;83.57;98915.55;2210914;81;20988;-80
2022/07/05 01:17:28;;;;;;;10.88;9.88;;;;;;;19.60;83.37;98911.20;2210894;81;20924;-80
2022/07/05 01:20:28;;;;;;;11.63;9.58;;;;;;;19.51;83.91;98912.70;2211167;81;20985;-80
2022/07/05 01:23:28;;;;;;;11.03;9.93;;;;;;;19.46;84.04;98919.88;2210978;81;20924;-82
2022/07/05 01:26:29;;;;;;;11.12;9.93;;;;;;;19.44;84.03;98920.36;2210801;81;21004;-80
2022/07/05 01:29:29;;;;;;;10.85;10.05;;;;;;;19.37;84.40;98918.31;2211323;81;20965;-81
2022/07/05 01:32:30;;;;;;;11.85;10.75;;;;;;;19.35;85.02;98923.22;2211245;81;20901;-80
2022/07/05 01:35:30;;;;;;;13.00;11.65;;;;;;;19.32;85.22;98927.25;2211130;80;21044;-81
2022/07/05 01:38:33;;;;;;;15.30;10.88;;;;;;;19.32;85.24;98927.25;2210678;81;21004;-82
2022/07/05 01:41:34;;;;;;;12.93;11.63;;;;;;;19.28;85.11;98921.16;2211408;81;20912;-81
2022/07/05 01:44:34;;;;;;;13.60;12.25;;;;;;;19.20;85.24;98920.45;2211229;81;20968;-81
2022/07/05 01:47:35;;;;;;;15.13;13.65;;;;;;;19.15;86.18;98919.69;2211298;81;20960;-81
2022/07/05 01:50:35;;;;;;;13.35;12.13;;;;;;;19.09;85.94;98915.84;2211218;81;20932;-80
2022/07/05 01:53:35;;;;;;;13.85;12.65;;;;;;;19.07;85.92;98910.59;2211001;81;20952;-80
2022/07/05 01:56:36;;;;;;;13.80;12.28;;;;;;;19.03;86.20;98910.66;2211272;81;20960;-80
2022/07/05 01:59:36;;;;;;;15.08;12.10;;;;;;;18.97;86.22;98903.72;2211111;81;20964;-80
2022/07/05 02:02:37;;;;;;;13.65;12.13;;;;;;;18.94;86.14;98908.20;2210890;81;20940;-81
2022/07/05 02:05:37;;;;;;;13.65;12.28;;;;;;;18.87;85.87;98914.06;2210803;81;20929;-81
2022/07/05 02:08:37;;;;;;;13.30;12.05;;;;;;;18.85;86.49;98913.23;2210781;81;20988;-81
2022/07/05 02:11:38;;;;;;;12.85;11.75;;;;;;;18.87;86.35;98912.75;2211326;81;21395;-80
2022/07/05 02:14:38;;;;;;;12.58;11.43;;;;;;;18.85;86.26;98904.42;2211254;81;20976;-81
2022/07/05 02:17:39;;;;;;;16.50;14.63;;;;;;;18.80;86.37;98899.23;2211514;81;20968;-79
2022/07/05 02:20:39;;;;;;;13.90;12.63;;;;;;;18.81;87.02;98898.33;2211014;81;20957;-80
2022/07/05 02:23:40;;;;;;;16.80;13.98;;;;;;;18.83;87.04;98889.91;2210925;81;21408;-80
2022/07/05 02:26:40;;;;;;;15.48;14.15;;;;;;;18.85;87.82;98893.39;2211356;81;20917;-80
2022/07/05 02:29:40;;;;;;;16.10;14.60;;;;;;;18.82;88.59;98900.07;2210856;81;21004;-80
2022/07/05 02:32:41;;;;;;;17.42;15.63;;;;;;;18.78;90.01;98907.20;2211742;81;20969;-79
2022/07/05 02:35:41;;;;;;;16.23;14.65;;;;;;;18.73;89.33;98913.02;2211004;81;21015;-80
2022/07/05 02:38:42;;;;;;;14.95;13.65;;;;;;;18.70;88.93;98916.18;2210624;81;20984;-80
2022/07/05 02:41:42;;;;;;;14.68;13.00;;;;;;;18.67;88.04;98917.56;2211013;81;20952;-80
2022/07/05 02:44:42;;;;;;;14.43;13.15;;;;;;;18.66;88.22;98919.34;2202739;81;20957;-81
2022/07/05 02:47:43;;;;;;;14.18;12.95;;;;;;;18.62;87.92;98924.71;2210807;81;20972;-81
2022/07/05 02:50:43;;;;;;;13.70;12.28;;;;;;;18.57;87.88;98930.50;2211517;81;20952;-82
2022/07/05 02:53:43;;;;;;;15.85;12.88;;;;;;;18.54;88.82;98937.17;2211108;81;20989;-80
2022/07/05 02:56:44;;;;;;;24.87;17.90;;;;;;;18.46;88.64;98939.51;2211164;81;21012;-81
2022/07/05 02:59:44;;;;;;;145.40;29.20;;;;;;;18.44;88.47;98947.05;2210922;81;21294;-80
2022/07/05 03:02:45;;;;;;;35.58;22.93;;;;;;;18.49;89.31;98966.78;2211290;81;20980;-81
2022/07/05 03:05:45;;;;;;;75.90;25.82;;;;;;;18.54;88.85;98959.19;2210974;81;20956;-81
2022/07/05 03:08:46;;;;;;;63.00;28.45;;;;;;;18.56;88.99;98956.52;2210453;81;21004;-80
2022/07/05 03:11:46;;;;;;;26.20;19.82;;;;;;;18.58;88.91;98955.59;2210862;81;20948;-80
2022/07/05 03:14:46;;;;;;;18.55;16.57;;;;;;;18.64;88.84;98966.53;2210773;81;21039;-80
2022/07/05 03:17:47;;;;;;;16.80;15.05;;;;;;;18.71;88.93;98971.68;2210578;81;20928;-81
2022/07/05 03:20:47;;;;;;;16.50;15.10;;;;;;;18.85;88.67;98975.83;2210603;81;20968;-81
2022/07/05 03:23:48;;;;;;;17.75;15.50;;;;;;;18.96;88.24;98978.69;2210060;81;20956;-81
2022/07/05 03:26:48;;;;;;;16.23;14.55;;;;;;;19.09;88.31;98976.25;2210117;81;20992;-81
2022/07/05 03:29:48;;;;;;;16.50;14.87;;;;;;;19.25;87.76;98970.19;2210300;81;20984;-81
2022/07/05 03:32:49;;;;;;;15.93;14.50;;;;;;;19.41;87.36;98970.73;2210408;81;21035;-81
2022/07/05 03:35:49;;;;;;;15.35;14.05;;;;;;;19.51;87.49;98971.40;2210383;81;20988;-81
2022/07/05 03:38:50;;;;;;;14.75;13.35;;;;;;;19.57;87.27;98979.23;2208912;80;21407;-81
2022/07/05 03:41:50;;;;;;;15.05;13.60;;;;;;;19.61;87.15;98975.16;2209069;81;21004;-81
2022/07/05 03:44:50;;;;;;;13.43;12.23;;;;;;;19.66;87.20;98979.90;2209529;81;20952;-79
2022/07/05 03:47:51;;;;;;;15.03;13.58;;;;;;;19.70;87.27;98986.00;2209885;81;20967;-81
2022/07/05 03:50:51;;;;;;;18.77;13.38;;;;;;;19.70;87.16;98981.58;2210192;81;21285;-81
2022/07/05 03:53:52;;;;;;;13.38;12.25;;;;;;;19.70;87.10;98975.41;2210837;81;20964;-81
2022/07/05 03:56:52;;;;;;;13.80;12.60;;;;;;;19.73;87.01;98972.69;2210520;81;20959;-80
2022/07/05 03:59:52;;;;;;;13.58;12.33;;;;;;;19.78;87.19;98973.91;2210430;81;21332;-81
2022/07/05 04:02:53;;;;;;;23.57;21.35;;;;;;;19.82;87.09;98967.62;2209476;81;21000;-81
2022/07/05 04:05:53;;;;;;;16.00;14.60;;;;;;;19.91;87.09;98960.79;2209568;81;20960;-80
2022/07/05 04:08:54;;;;;;;13.93;12.70;;;;;;;19.98;86.78;98959.77;2209802;81;21384;-80
2022/07/05 04:11:54;;;;;;;13.88;12.65;;;;;;;20.09;86.16;98963.02;2209292;81;20956;-80
2022/07/05 04:14:54;;;;;;;47.40;14.58;;;;;;;20.16;85.57;98958.44;2208950;81;20944;-81
2022/07/05 04:17:55;;;;;;;16.30;13.45;;;;;;;20.17;85.00;98949.13;2208580;81;20984;-79
2022/07/05 04:20:55;;;;;;;14.45;13.18;;;;;;;20.20;84.61;98954.35;2208158;81;20951;-79
2022/07/05 04:23:56;;;;;;;16.07;14.68;;;;;;;20.22;84.47;98954.31;2208657;81;20957;-80
2022/07/05 04:26:56;;;;;;;22.82;20.57;;;;;;;20.24;84.67;98961.31;2209370;81;21416;-79
2022/07/05 04:29:56;;;;;;;16.37;14.80;;;;;;;20.29;84.79;98955.45;2209131;81;20901;-79
2022/07/05 04:32:57;;;;;;;14.78;13.48;;;;;;;20.45;84.50;98960.38;2210068;81;20988;-79
2022/07/05 04:35:57;;;;;;;15.93;13.58;;;;;;;20.53;83.62;98955.29;2209435;81;20948;-79
2022/07/05 04:38:58;;;;;;;15.45;13.98;;;;;;;20.58;83.00;98957.37;2208812;81;21027;-79
2022/07/05 04:41:58;;;;;;;14.70;13.40;;;;;;;20.72;83.03;98959.64;2209268;81;20952;-79
2022/07/05 04:44:58;;;;;;;27.00;14.53;;;;;;;20.91;82.90;98960.91;2209425;81;20984;-81
2022/07/05 04:47:59;;;;;;;14.38;13.28;;;;;;;21.11;82.95;98967.44;2209276;81;21695;-79
2022/07/05 04:50:59;;;;;;;13.13;11.88;;;;;;;21.26;82.73;98965.23;2209195;81;21035;-79
2022/07/05 04:54:00;;;;;;;12.63;11.38;;;;;;;21.45;82.20;98965.56;2208743;81;20980;-79
2022/07/05 04:57:00;;;;;;;15.63;13.65;;;;;;;21.58;81.27;98962.07;2209528;81;20980;-79
2022/07/05 05:00:00;;;;;;;27.80;12.95;;;;;;;21.67;81.17;98967.56;2209766;81;20976;-82
2022/07/05 05:03:01;;;;;;;20.12;11.03;;;;;;;21.81;80.79;98972.88;2210469;81;20944;-80
2022/07/05 05:06:01;;;;;;;26.62;13.03;;;;;;;21.87;80.19;98960.73;2209586;81;20941;-81
2022/07/05 05:09:02;;;;;;;14.95;11.60;;;;;;;21.93;80.33;98964.98;2209143;81;21015;-80
2022/07/05 05:12:02;;;;;;;10.85;9.83;;;;;;;22.07;79.84;98960.12;2209479;81;20925;-78
2022/07/05 05:15:03;;;;;;;321.73;28.15;;;;;;;22.16;79.39;98964.27;2209412;81;20960;-79
2022/07/05 05:18:03;;;;;;;46.75;12.23;;;;;;;22.22;79.48;98960.07;2209848;81;20996;-81
2022/07/05 05:21:04;;;;;;;10.40;9.50;;;;;;;22.28;79.27;98973.63;2208879;81;20964;-80
2022/07/05 05:24:04;;;;;;;11.03;10.20;;;;;;;22.41;79.39;98977.61;2209354;81;20937;-79
2022/07/05 05:27:04;;;;;;;10.35;9.45;;;;;;;22.57;79.33;98980.19;2209289;81;21001;-79
2022/07/05 05:30:05;;;;;;;10.38;9.50;;;;;;;22.77;78.53;98982.15;2208909;81;21056;-81
2022/07/05 05:33:05;;;;;;;14.47;9.90;;;;;;;22.93;77.77;98978.05;2208741;81;20984;-79
2022/07/05 05:36:05;;;;;;;9.95;9.15;;;;;;;23.15;77.45;98981.66;2209446;81;21000;-79
2022/07/05 05:39:06;;;;;;;9.45;8.13;;;;;;;23.37;76.62;98989.72;2208888;80;21103;-81
2022/07/05 05:42:06;;;;;;;9.73;8.70;;;;;;;23.53;76.10;98990.51;2209018;81;21019;-81
2022/07/05 05:45:07;;;;;;;16.48;9.58;;;;;;;23.65;75.98;98994.94;2209278;81;20941;-81
2022/07/05 05:48:07;;;;;;;18.20;9.28;;;;;;;23.78;76.10;98993.53;2209573;81;21443;-81
2022/07/05 05:51:07;;;;;;;40.98;9.78;;;;;;;23.99;76.01;98999.80;2208518;81;20908;-81
2022/07/05 05:54:08;;;;;;;21.27;7.67;;;;;;;24.08;74.65;99003.43;2208873;81;21052;-80
2022/07/05 05:57:08;;;;;;;9.40;6.80;;;;;;;24.08;73.08;99001.23;2209071;81;20967;-82
2022/07/05 06:00:09;;;;;;;11.88;7.62;;;;;;;23.92;71.82;99000.98;2208748;81;20917;-82
2022/07/05 06:03:09;;;;;;;9.98;8.05;;;;;;;23.80;72.63;99008.13;2208669;80;20985;-79
2022/07/05 06:06:09;;;;;;;8.08;7.03;;;;;;;23.83;72.64;99006.67;2208506;81;20952;-83
2022/07/05 06:09:10;;;;;;;10.50;6.78;;;;;;;23.71;71.97;99004.48;2208728;81;21019;-80
2022/07/05 06:12:10;;;;;;;8.00;6.65;;;;;;;23.52;71.91;99005.63;2208720;80;20968;-82
2022/07/05 06:15:11;;;;;;;19.25;7.12;;;;;;;23.39;71.79;99006.52;2209017;81;20948;-80
2022/07/05 06:18:12;;;;;;;21.25;7.30;;;;;;;23.31;72.42;99008.59;2207907;81;20905;-81
2022/07/05 06:21:12;;;;;;;14.98;8.20;;;;;;;23.25;72.37;99003.50;2207866;81;20984;-80
2022/07/05 06:24:12;;;;;;;11.80;7.50;;;;;;;23.20;72.43;99009.45;2208240;81;20920;-80
2022/07/05 06:27:12;;;;;;;10.15;6.35;;;;;;;23.19;72.63;98999.27;2208827;81;20974;-82
2022/07/05 06:30:13;;;;;;;36.93;8.78;;;;;;;23.17;72.48;99004.24;2208802;81;20944;-80
2022/07/05 06:33:13;;;;;;;7.80;7.00;;;;;;;23.29;72.44;99006.91;2208307;81;20917;-82
2022/07/05 06:36:14;;;;;;;8.25;7.05;;;;;;;23.40;72.06;99005.59;2208138;81;21378;-82
2022/07/05 06:39:14;;;;;;;95.03;11.75;;;;;;;23.56;71.75;99010.41;2208430;81;21479;-82
2022/07/05 06:42:17;;;;;;;9.93;7.20;;;;;;;23.68;71.66;99009.94;2208595;81;21320;-83
2022/07/05 06:45:17;;;;;;;10.58;6.58;;;;;;;23.83;70.71;99002.20;2209060;81;21040;-82
2022/07/05 06:48:18;;;;;;;10.53;6.60;;;;;;;24.04;70.70;99004.48;2208847;81;20959;-80
2022/07/05 06:51:18;;;;;;;18.90;7.08;;;;;;;24.19;70.18;99003.46;2208912;81;21323;-80
2022/07/05 06:54:19;;;;;;;8.33;6.47;;;;;;;24.35;69.45;99009.97;2208191;81;20956;-80
2022/07/05 06:57:19;;;;;;;7.80;6.22;;;;;;;24.40;68.77;99011.98;2208709;81;20956;-80
2022/07/05 07:00:20;;;;;;;7.33;6.17;;;;;;;24.33;68.26;99018.50;2209528;81;20956;-80
2022/07/05 07:03:20;;;;;;;6.92;6.10;;;;;;;24.31;67.72;99016.36;2209564;81;20960;-81
2022/07/05 07:06:20;;;;;;;9.33;6.53;;;;;;;24.20;67.78;99015.40;2208772;81;21329;-80
2022/07/05 07:09:22;;;;;;;10.50;6.62;;;;;;;24.04;67.29;99008.95;2209045;81;20976;-80
2022/07/05 07:12:21;;;;;;;7.50;6.50;;;;;;;23.92;68.23;99016.97;2208781;81;20928;-80
2022/07/05 07:15:22;;;;;;;6.97;6.28;;;;;;;23.85;68.15;99019.47;2209092;81;21008;-81
2022/07/05 07:18:22;;;;;;;10.58;6.33;;;;;;;23.83;68.38;99017.33;2208695;81;20937;-80
2022/07/05 07:21:22;;;;;;;7.72;6.58;;;;;;;23.83;68.36;99018.67;2209448;81;20991;-81
2022/07/05 07:24:23;;;;;;;10.80;6.92;;;;;;;23.80;68.79;99025.45;2209236;81;20992;-79
2022/07/05 07:27:23;;;;;;;14.07;6.92;;;;;;;23.77;68.76;99026.90;2208829;81;20936;-80
2022/07/05 07:30:24;;;;;;;9.55;6.58;;;;;;;23.79;69.29;99035.70;2208653;81;20928;-80
2022/07/05 07:33:24;;;;;;;14.40;6.70;;;;;;;23.83;69.17;99029.33;2208245;81;20956;-80
2022/07/05 07:36:24;;;;;;;32.25;9.10;;;;;;;23.87;68.85;99040.28;2209033;81;20968;-79
2022/07/05 07:39:25;;;;;;;10.80;6.37;;;;;;;23.87;68.41;99042.94;2195945;80;21032;-79
2022/07/05 07:42:26;;;;;;;15.23;7.37;;;;;;;23.88;68.02;99046.02;2192749;81;20921;-81
2022/07/05 07:45:27;;;;;;;9.08;6.50;;;;;;;23.82;67.56;99045.78;2193174;81;21388;-80
2022/07/05 07:48:28;;;;;;;11.22;6.47;;;;;;;23.82;67.86;99048.91;2193109;81;20952;-80
2022/07/05 07:51:27;;;;;;;9.98;6.75;;;;;;;23.81;67.72;99052.51;2192645;81;20929;-82
2022/07/05 07:54:27;;;;;;;9.58;6.35;;;;;;;23.84;66.88;99047.06;2192903;81;20928;-80
2022/07/05 07:57:29;;;;;;;8.03;5.78;;;;;;;23.89;67.21;99057.08;2172034;81;21631;-80
2022/07/05 08:00:32;;;;;;;15.03;6.67;;;;;;;23.85;66.74;99060.80;2192647;81;20973;-81
2022/07/05 08:03:33;;;;;;;9.50;6.35;;;;;;;23.75;66.29;99054.95;2193277;81;20936;-81
2022/07/05 08:06:33;;;;;;;8.80;6.10;;;;;;;23.72;66.79;99059.06;2192701;81;20905;-81
2022/07/05 08:09:34;;;;;;;9.95;6.40;;;;;;;23.70;66.89;99059.58;2192710;81;20970;-81
2022/07/05 08:12:34;;;;;;;7.08;6.20;;;;;;;23.61;67.01;99063.92;2193129;81;21624;-81
2022/07/05 08:15:34;;;;;;;12.75;6.65;;;;;;;23.56;67.05;99063.69;2194618;81;21360;-81
2022/07/05 08:21:54;;;;;;;30.88;8.05;;;;;;;23.52;67.63;99065.56;2194230;81;20952;-83
2022/07/05 08:24:54;;;;;;;6.85;6.20;;;;;;;23.49;67.81;99059.89;2194569;81;20914;-83
2022/07/05 08:27:54;;;;;;;6.92;6.30;;;;;;;23.40;67.94;99058.87;2193953;81;20898;-83
2022/07/05 08:30:55;;;;;;;6.80;6.03;;;;;;;23.31;68.38;99064.53;2194218;81;20943;-82
2022/07/05 08:33:55;;;;;;;25.32;6.75;;;;;;;23.25;68.72;99064.75;2194106;81;20972;-84
2022/07/05 08:36:56;;;;;;;67.15;10.30;;;;;;;23.15;68.63;99073.99;2193670;81;21367;-84
2022/07/05 08:39:56;;;;;;;54.93;9.10;;;;;;;23.05;68.51;99070.78;2207034;80;21039;-82
2022/07/05 08:42:56;;;;;;;11.03;5.90;;;;;;;22.96;68.91;99075.56;2209052;81;20932;-83
2022/07/05 08:45:57;;;;;;;12.00;5.85;;;;;;;22.90;68.88;99075.77;2208257;81;20975;-82
2022/07/05 08:48:57;;;;;;;34.90;7.87;;;;;;;22.82;68.78;99076.03;2209377;81;20998;-84
2022/07/05 08:51:59;;;;;;;16.75;7.30;;;;;;;22.74;69.02;99078.05;2209362;81;20936;-82
2022/07/05 08:54:58;;;;;;;13.95;7.12;;;;;;;22.63;68.96;99083.73;2209553;81;20964;-83
2022/07/05 08:57:59;;;;;;;8.10;5.55;;;;;;;22.51;69.85;99082.31;2209665;81;20937;-81
2022/07/05 09:00:59;;;;;;;5.40;4.90;;;;;;;22.43;70.67;99081.69;2210399;81;20961;-80
2022/07/05 09:03:59;;;;;;;6.20;5.28;;;;;;;22.31;71.45;99086.53;2210239;81;21348;-82
2022/07/05 09:07:00;;;;;;;6.47;5.83;;;;;;;22.18;71.78;99087.38;2209416;81;20948;-80
2022/07/05 09:10:00;;;;;;;6.58;5.70;;;;;;;22.05;72.90;99089.55;2209675;81;21055;-81
2022/07/05 09:13:01;;;;;;;6.20;5.60;;;;;;;21.92;73.12;99079.72;2209003;81;20968;-79
2022/07/05 09:16:01;;;;;;;7.30;6.20;;;;;;;21.82;73.58;99084.03;2208557;81;21636;-80
2022/07/05 09:19:01;;;;;;;8.15;6.05;;;;;;;21.72;74.43;99083.42;2209078;81;21008;-80
2022/07/05 09:22:04;;;;;;;6.08;5.58;;;;;;;21.65;75.10;99076.98;2209322;81;20936;-80
2022/07/05 09:25:04;;;;;;;12.85;7.08;;;;;;;21.61;75.48;99080.18;2187446;81;20929;-79
2022/07/05 09:28:04;;;;;;;8.05;7.25;;;;;;;21.60;76.44;99080.64;2208758;81;20968;-80
2022/07/05 09:31:05;;;;;;;8.40;7.12;;;;;;;21.66;76.77;99080.05;2207496;81;21373;-79
2022/07/05 09:34:06;;;;;;;8.30;7.55;;;;;;;21.68;76.83;99080.45;2207738;81;20952;-81
2022/07/05 09:37:06;;;;;;;8.90;7.28;;;;;;;21.69;76.76;99083.97;2208747;81;20976;-80
2022/07/05 09:40:06;;;;;;;9.28;8.38;;;;;;;21.70;77.21;99089.24;2207302;80;21000;-79
2022/07/05 09:43:07;;;;;;;9.93;8.13;;;;;;;21.71;77.54;99090.11;2208735;80;20961;-80
2022/07/05 09:46:08;;;;;;;9.45;8.55;;;;;;;21.72;77.29;99102.02;2208079;81;20936;-79
2022/07/05 09:49:07;;;;;;;9.30;6.90;;;;;;;21.82;77.31;99092.00;2208186;81;20959;-80
2022/07/05 09:52:08;;;;;;;7.62;6.95;;;;;;;21.94;77.37;99091.17;2208437;81;20968;-79
2022/07/05 09:55:08;;;;;;;7.25;6.58;;;;;;;22.02;76.32;99096.71;2208612;81;21031;-82
2022/07/05 09:58:09;;;;;;;7.95;7.15;;;;;;;22.03;76.05;99095.38;2208540;81;20917;-79
2022/07/05 10:01:09;;;;;;;6.80;6.30;;;;;;;22.12;77.05;99094.22;2208506;81;21589;-79
2022/07/05 10:04:09;;;;;;;6.75;6.15;;;;;;;22.24;77.16;99101.81;2209000;81;20929;-80
2022/07/05 10:07:10;;;;;;;8.13;6.35;;;;;;;22.19;76.12;99097.97;2209150;81;20929;-80
2022/07/05 10:10:10;;;;;;;6.65;6.15;;;;;;;22.22;75.70;99096.55;2208626;81;21561;-81
2022/07/05 10:13:11;;;;;;;7.83;7.03;;;;;;;22.25;76.19;99096.45;2208739;81;20936;-79
2022/07/05 10:16:11;;;;;;;8.68;7.87;;;;;;;22.23;76.39;99094.75;2208797;81;20956;-81
2022/07/05 10:19:11;;;;;;;7.90;7.15;;;;;;;22.20;77.25;99103.70;2208751;81;21528;-81
2022/07/05 10:22:12;;;;;;;8.63;7.92;;;;;;;22.17;77.19;99106.45;2209618;81;21406;-81
2022/07/05 10:25:12;;;;;;;9.90;9.10;;;;;;;22.13;77.62;99110.13;2208683;81;20933;-80
2022/07/05 10:28:13;;;;;;;14.05;12.75;;;;;;;22.05;76.36;99112.60;2209699;81;21337;-81
2022/07/05 10:31:13;;;;;;;13.55;12.28;;;;;;;21.98;76.84;99115.87;2209296;81;21760;-80
2022/07/05 10:34:14;;;;;;;11.93;10.88;;;;;;;22.03;77.34;99118.42;2209165;81;20967;-81
2022/07/05 10:37:14;;;;;;;10.25;9.33;;;;;;;22.13;77.40;99121.22;2208769;81;20996;-79
2022/07/05 10:40:14;;;;;;;8.45;7.70;;;;;;;22.19;76.97;99116.58;2209020;80;21051;-81
2022/07/05 10:43:15;;;;;;;7.03;6.50;;;;;;;22.18;77.07;99117.95;2209046;81;20975;-80
2022/07/05 10:46:15;;;;;;;7.03;6.35;;;;;;;22.18;76.85;99115.30;2209010;80;20948;-83
2022/07/05 10:49:16;;;;;;;7.37;6.72;;;;;;;22.10;76.45;99119.52;2208873;80;20979;-81
2022/07/05 10:52:16;;;;;;;7.53;6.87;;;;;;;21.98;76.72;99113.21;2208515;81;21452;-79
2022/07/05 10:55:16;;;;;;;7.85;7.15;;;;;;;21.88;77.31;99121.05;2207844;81;20976;-80
2022/07/05 10:58:17;;;;;;;8.78;8.03;;;;;;;21.82;78.03;99115.91;2208783;80;20968;-81
2022/07/05 11:01:17;;;;;;;8.63;7.83;;;;;;;21.83;77.89;99116.33;2208870;81;20952;-80
2022/07/05 11:04:17;;;;;;;10.25;7.60;;;;;;;21.93;78.49;99113.34;2209748;81;21031;-81
2022/07/05 11:07:18;;;;;;;7.83;7.05;;;;;;;22.02;77.78;99120.17;2208698;81;21304;-80
2022/07/05 11:10:18;;;;;;;6.65;6.12;;;;;;;21.99;78.21;99112.30;2209189;80;21031;-83
2022/07/05 11:13:19;;;;;;;7.70;7.03;;;;;;;22.00;77.66;99111.38;2209520;81;20995;-81
2022/07/05 11:16:19;;;;;;;7.85;7.15;;;;;;;22.01;77.73;99110.46;2208450;81;20984;-81
2022/07/05 11:19:21;;;;;;;7.40;6.80;;;;;;;21.98;77.39;99100.38;2208396;81;20927;-81
2022/07/05 11:22:20;;;;;;;7.90;7.20;;;;;;;22.00;77.76;99098.09;2209558;81;20908;-80
2022/07/05 11:25:20;;;;;;;7.78;6.78;;;;;;;22.03;78.02;99104.67;2208598;81;20960;-80
2022/07/05 11:28:24;;;;;;;7.87;7.15;;;;;;;22.16;78.57;99102.51;2208353;81;20921;-81
2022/07/05 11:31:24;;;;;;;7.50;6.87;;;;;;;22.23;78.64;99100.08;2208445;80;20924;-82
2022/07/05 11:34:25;;;;;;;6.78;6.15;;;;;;;22.25;78.12;99098.23;2208915;81;20963;-80
2022/07/05 11:37:28;;;;;;;7.62;6.67;;;;;;;22.28;78.67;99097.27;2208744;80;20953;-82
2022/07/05 11:40:26;;;;;;;7.83;7.00;;;;;;;22.28;78.46;99090.62;2209605;81;21356;-82
2022/07/05 11:43:26;;;;;;;9.60;8.90;;;;;;;22.27;78.63;99088.88;2208947;81;20952;-82
2022/07/05 11:46:26;;;;;;;10.78;9.73;;;;;;;22.22;77.62;99078.39;2208914;81;21491;-81
2022/07/05 11:49:27;;;;;;;11.97;8.90;;;;;;;22.14;78.22;99085.28;2208868;81;21366;-82
2022/07/05 11:52:27;;;;;;;8.93;8.18;;;;;;;22.09;78.37;99078.36;2209848;81;21363;-81
2022/07/05 11:55:28;;;;;;;7.95;7.25;;;;;;;22.04;78.65;99075.84;2209226;81;20956;-81
2022/07/05 11:58:28;;;;;;;11.22;8.03;;;;;;;22.04;78.57;99074.98;2210140;81;20983;-82
2022/07/05 12:01:29;;;;;;;8.83;8.13;;;;;;;22.00;78.89;99075.95;2210288;81;20980;-80
2022/07/05 12:04:29;;;;;;;9.18;8.13;;;;;;;21.96;78.73;99069.86;2210031;81;20956;-82
2022/07/05 12:07:29;;;;;;;9.13;8.20;;;;;;;21.98;79.31;99068.03;2210021;81;21008;-81
2022/07/05 12:13:50;;;;;;;7.75;7.03;;;;;;;22.13;79.37;99066.25;2209794;81;20928;-81
2022/07/05 12:16:50;;;;;;;9.68;8.85;;;;;;;22.09;78.93;99061.08;2209063;81;21003;-80
2022/07/05 12:19:50;;;;;;;16.27;15.10;;;;;;;22.12;79.17;99057.88;2209916;81;20936;-81
2022/07/05 12:22:51;;;;;;;11.53;10.40;;;;;;;22.10;79.19;99061.03;2209057;81;20921;-82
2022/07/05 12:25:51;;;;;;;11.57;10.48;;;;;;;22.10;79.09;99058.38;2209044;81;21410;-81
2022/07/05 12:28:52;;;;;;;8.80;8.10;;;;;;;22.14;79.23;99067.12;2209946;81;20929;-82
2022/07/05 12:31:52;;;;;;;8.58;7.83;;;;;;;22.12;79.35;99062.31;2209942;81;20925;-81
2022/07/05 12:34:53;;;;;;;15.25;13.50;;;;;;;22.08;80.09;99054.89;2209783;81;21335;-80
2022/07/05 12:37:53;;;;;;;12.10;11.00;;;;;;;22.01;79.78;99057.77;2210026;81;20959;-82
2022/07/05 12:40:53;;;;;;;8.60;7.78;;;;;;;21.96;79.94;99056.58;2209296;81;21031;-81
2022/07/05 12:43:54;;;;;;;9.45;8.65;;;;;;;21.93;79.83;99056.67;2209614;81;20933;-82
2022/07/05 12:46:55;;;;;;;12.95;11.80;;;;;;;21.91;80.04;99056.72;2209557;81;20984;-82
2022/07/05 12:49:55;;;;;;;10.98;9.78;;;;;;;21.96;79.79;99055.70;2209417;81;20984;-80
2022/07/05 12:52:55;;;;;;;10.20;9.28;;;;;;;21.90;79.78;99052.77;2210016;80;20968;-80
2022/07/05 12:59:14;;;;;;;10.80;9.90;;;;;;;21.87;80.94;99056.86;2209564;81;20953;-82
2022/07/05 13:02:15;;;;;;;11.12;10.20;;;;;;;21.76;80.56;99054.52;2209641;81;21010;-82
2022/07/05 13:05:15;;;;;;;12.47;11.28;;;;;;;21.74;80.92;99059.02;2209973;81;20980;-82
2022/07/05 13:08:16;;;;;;;12.10;11.03;;;;;;;21.73;81.00;99051.96;2209992;81;21085;-82
2022/07/05 13:11:16;;;;;;;11.53;10.45;;;;;;;21.72;81.32;99052.88;2210041;81;20968;-82
2022/07/05 13:14:16;;;;;;;12.15;10.95;;;;;;;21.69;81.28;99051.64;2209396;81;21025;-81
2022/07/05 13:17:17;;;;;;;12.60;11.50;;;;;;;21.70;81.73;99049.39;2209183;81;21377;-82
2022/07/05 13:20:19;;;;;;;11.97;10.85;;;;;;;21.65;81.83;99045.10;2210356;81;20940;-80
2022/07/05 13:23:18;;;;;;;12.88;11.78;;;;;;;21.66;82.46;99046.38;2210267;81;20987;-81
2022/07/05 13:26:18;;;;;;;12.88;11.73;;;;;;;21.65;82.29;99050.41;2209692;81;20948;-81
2022/07/05 13:29:18;;;;;;;13.98;12.43;;;;;;;21.68;82.28;99046.38;2209830;81;21595;-81
2022/07/05 13:32:21;;;;;;;13.68;12.37;;;;;;;21.71;82.95;99048.48;2209334;81;20980;-82
2022/07/05 13:35:19;;;;;;;13.32;12.10;;;;;;;21.68;82.59;99045.05;2208802;81;21006;-80
2022/07/05 13:38:20;;;;;;;15.72;14.07;;;;;;;21.74;83.70;99046.19;2208986;81;21422;-80
2022/07/05 13:41:20;;;;;;;14.15;12.98;;;;;;;21.77;83.53;99043.44;2209011;81;21055;-81
2022/07/05 13:44:20;;;;;;;16.62;14.00;;;;;;;21.79;83.58;99044.26;2209981;81;20940;-79
2022/07/05 13:47:21;;;;;;;14.10;12.80;;;;;;;21.73;83.39;99045.77;2209447;81;21299;-80
2022/07/05 13:50:34;;;;;;;14.13;12.93;;;;;;;21.69;83.87;99038.81;2209944;81;20913;-80
2022/07/05 13:53:36;;;;;;;18.27;13.65;;;;;;;21.64;83.43;99044.23;2210479;81;21387;-80
2022/07/05 13:56:37;;;;;;;16.60;15.00;;;;;;;21.63;83.83;99044.69;2210029;81;21004;-80
2022/07/05 13:59:37;;;;;;;16.77;15.08;;;;;;;21.65;84.84;99040.66;2193462;81;20933;-81
2022/07/05 14:02:38;;;;;;;17.65;16.02;;;;;;;21.61;85.41;99039.88;2203730;81;20983;-82
2022/07/05 14:05:38;;;;;;;16.32;14.90;;;;;;;21.51;86.10;99038.87;2210672;81;21020;-79
2022/07/05 14:08:42;;;;;;;15.90;14.38;;;;;;;21.44;86.50;99041.29;2211047;81;21015;-79